Time;durP1;ratioP1;P1;durP2;ratioP2;P2;SDS_P1;SDS_P2;PMS_P1;PMS_P2;Temp;Humidity;BMP_temperature;BMP_pressure;BME280_temperature;BME280_humidity;BME280_pressure;Samples;Min_cycle;Max_cycle;Signal;HPM_P1;HPM_P2
2022/12/15 00:40:58;;;;;;;31.10;14.70;;;;;;;1.92;63.50;99562.88;5141474;27;20207;-65
2022/12/15 00:43:26;;;;;;;32.87;15.07;;;;;;;1.82;63.83;99571.41;5141725;27;20208;-65
2022/12/15 00:48:40;;;;;;;31.93;14.17;;;;;;;1.87;64.28;99592.81;5146845;27;20596;-66
2022/12/15 00:51:07;;;;;;;30.87;14.13;;;;;;;1.93;63.95;99598.53;5144642;27;20209;-66
2022/12/15 01:21:16;;;;;;;31.87;15.07;;;;;;;0.77;69.29;99599.13;5146312;27;20234;-65
2022/12/15 01:23:44;;;;;;;38.73;15.80;;;;;;;0.77;69.77;99606.94;5147186;27;20201;-67
2022/12/15 01:26:12;;;;;;;31.83;15.57;;;;;;;0.83;69.51;99618.72;5145287;27;20232;-66
2022/12/15 01:28:41;;;;;;;37.03;17.20;;;;;;;0.88;69.28;99625.28;5144421;27;20243;-66
2022/12/15 01:31:12;;;;;;;34.73;16.77;;;;;;;0.84;68.94;99623.84;5151512;27;20208;-66
2022/12/15 01:33:41;;;;;;;36.63;16.03;;;;;;;0.78;69.28;99624.28;5151126;27;20269;-66
2022/12/15 01:36:10;;;;;;;30.07;14.77;;;;;;;0.72;69.52;99629.91;5143828;27;20717;-66
2022/12/15 01:38:38;;;;;;;31.50;15.83;;;;;;;0.67;69.78;99637.22;5141554;27;20199;-65
2022/12/15 01:41:08;;;;;;;31.93;15.57;;;;;;;0.67;69.93;99634.63;5146376;27;20661;-65
2022/12/15 01:43:38;;;;;;;29.33;14.00;;;;;;;0.65;69.86;99629.50;5142400;27;20212;-66
2022/12/15 01:46:09;;;;;;;34.20;15.77;;;;;;;0.62;70.13;99628.88;5146274;27;20208;-66
2022/12/15 01:48:41;;;;;;;27.80;14.07;;;;;;;0.63;70.04;99630.53;5144408;27;20289;-65
2022/12/15 01:51:15;;;;;;;34.53;16.13;;;;;;;0.66;70.01;99630.34;5138278;27;20212;-66
2022/12/15 01:53:48;;;;;;;38.33;16.53;;;;;;;0.91;69.21;99630.28;5143522;27;20204;-66
2022/12/15 01:56:17;;;;;;;36.17;14.67;;;;;;;1.08;68.11;99636.94;5142633;27;20260;-66
2022/12/15 01:58:48;;;;;;;33.27;15.07;;;;;;;1.08;68.13;99634.31;5146833;27;20218;-66
2022/12/15 02:01:18;;;;;;;41.27;14.63;;;;;;;1.06;67.98;99639.66;5150433;27;20655;-66
2022/12/15 02:03:47;;;;;;;31.97;14.53;;;;;;;0.89;68.71;99637.38;5136633;27;20201;-66
2022/12/15 02:06:16;;;;;;;29.80;14.20;;;;;;;0.80;69.29;99645.88;5129351;27;20212;-65
2022/12/15 02:08:46;;;;;;;28.43;14.53;;;;;;;0.74;69.80;99641.06;5128398;27;20201;-66
2022/12/15 02:11:31;;;;;;;34.33;16.00;;;;;;;0.83;69.74;99644.81;5143762;27;20246;-65
2022/12/15 02:14:02;;;;;;;33.23;14.97;;;;;;;0.86;69.27;99647.22;5144725;27;20211;-65
2022/12/15 02:16:44;;;;;;;29.60;14.63;;;;;;;0.79;69.49;99644.22;5143289;27;20208;-65
2022/12/15 02:19:39;;;;;;;30.43;15.03;;;;;;;0.77;69.58;99643.47;5143627;27;20253;-65
2022/12/15 02:22:19;;;;;;;32.73;15.13;;;;;;;0.71;69.55;99647.34;5133978;27;20241;-66
2022/12/15 02:25:07;;;;;;;32.80;15.00;;;;;;;0.66;69.55;99646.00;5141490;27;20746;-66
2022/12/15 02:27:56;;;;;;;30.93;14.47;;;;;;;0.63;69.91;99649.63;5146153;27;20771;-66
2022/12/15 02:31:48;;;;;;;29.40;14.53;;;;;;;0.69;69.40;99638.81;5139212;27;21890;-67
2022/12/15 02:33:37;;;;;;;33.67;14.60;;;;;;;0.70;69.07;99631.81;5142716;27;20268;-66
2022/12/15 02:36:15;;;;;;;32.90;15.13;;;;;;;0.63;68.99;99635.75;5147357;27;20208;-67
2022/12/15 02:38:43;;;;;;;33.83;15.37;;;;;;;0.55;69.36;99640.66;5138875;27;20226;-66
2022/12/15 02:41:35;;;;;;;34.53;15.37;;;;;;;0.51;69.13;99636.63;5144542;27;20235;-66
2022/12/15 02:44:10;;;;;;;37.13;15.53;;;;;;;0.46;69.23;99639.53;5141450;27;20216;-65
2022/12/15 02:46:51;;;;;;;32.30;16.50;;;;;;;0.48;69.28;99644.63;5141941;27;20203;-65
2022/12/15 02:49:30;;;;;;;36.87;14.70;;;;;;;0.76;68.52;99644.41;5142114;27;20201;-66
2022/12/15 02:52:09;;;;;;;31.07;14.17;;;;;;;1.07;67.17;99645.72;5139377;27;20949;-65
2022/12/15 02:55:01;;;;;;;32.30;15.17;;;;;;;1.03;66.31;99645.13;5140689;27;20209;-66
2022/12/15 02:57:36;;;;;;;30.57;13.73;;;;;;;0.85;66.82;99656.84;5142580;27;20201;-65
2022/12/15 03:00:08;;;;;;;38.57;16.40;;;;;;;0.69;67.61;99658.84;5142331;27;20238;-66
2022/12/15 03:02:40;;;;;;;35.97;14.73;;;;;;;0.96;66.93;99674.38;5140732;27;22192;-66
2022/12/15 03:05:09;;;;;;;33.60;16.00;;;;;;;1.12;66.00;99670.56;5142725;27;20542;-66
2022/12/15 03:07:37;;;;;;;33.87;16.77;;;;;;;0.91;66.19;99677.28;5140006;27;20679;-67
2022/12/15 03:10:07;;;;;;;31.60;14.67;;;;;;;0.75;66.96;99674.06;5143311;27;20292;-66
2022/12/15 03:12:34;;;;;;;31.50;15.20;;;;;;;0.59;67.39;99673.44;5142122;27;20688;-66
2022/12/15 03:15:02;;;;;;;34.97;15.77;;;;;;;0.48;67.78;99670.72;5140393;27;20203;-67
2022/12/15 03:17:30;;;;;;;28.63;14.03;;;;;;;0.37;68.16;99677.50;5130438;27;20211;-66
2022/12/15 03:19:59;;;;;;;37.03;16.00;;;;;;;0.26;68.54;99674.78;5142742;27;20226;-66
2022/12/15 03:22:27;;;;;;;33.10;15.27;;;;;;;0.20;68.83;99672.56;5123449;27;20203;-66
2022/12/15 03:24:54;;;;;;;30.13;15.23;;;;;;;0.14;69.02;99680.81;5149883;27;20580;-67
2022/12/15 03:27:22;;;;;;;36.20;15.50;;;;;;;0.07;69.10;99684.75;5144162;27;20222;-67
2022/12/15 03:29:50;;;;;;;39.00;15.37;;;;;;;0.10;69.17;99699.34;5141023;27;20289;-65
2022/12/15 03:32:17;;;;;;;32.93;15.63;;;;;;;0.08;68.98;99699.47;5143309;27;20207;-65
2022/12/15 03:34:45;;;;;;;33.00;14.47;;;;;;;0.09;68.77;99706.31;5140023;27;20210;-66
2022/12/15 03:37:14;;;;;;;30.13;15.40;;;;;;;0.00;68.95;99699.13;5142489;27;20790;-65
2022/12/15 03:39:42;;;;;;;30.27;15.07;;;;;;;-0.04;69.00;99705.47;5141035;27;20219;-66
2022/12/15 03:42:10;;;;;;;29.37;15.43;;;;;;;0.01;68.59;99708.59;5145219;27;20199;-66
2022/12/15 03:44:37;;;;;;;28.13;13.60;;;;;;;-0.08;68.60;99715.25;5142861;27;20203;-66
2022/12/15 03:47:05;;;;;;;32.80;15.33;;;;;;;-0.13;68.95;99722.53;5144111;27;20676;-67
2022/12/15 03:49:33;;;;;;;29.43;15.07;;;;;;;-0.25;69.15;99720.72;5133633;27;20302;-66
2022/12/15 03:52:01;;;;;;;29.67;15.10;;;;;;;-0.27;69.27;99724.38;5144864;27;20217;-66
2022/12/15 03:54:30;;;;;;;26.83;13.93;;;;;;;-0.35;69.56;99724.03;5131828;27;20207;-66
2022/12/15 03:56:58;;;;;;;35.20;15.73;;;;;;;-0.41;69.78;99714.81;5133008;27;20208;-67
2022/12/15 03:59:26;;;;;;;31.00;14.50;;;;;;;-0.41;69.97;99713.03;5144076;27;20223;-67
2022/12/15 04:01:53;;;;;;;31.83;14.57;;;;;;;-0.40;69.55;99717.31;5141206;27;20567;-67
2022/12/15 04:04:21;;;;;;;34.87;15.33;;;;;;;-0.39;69.62;99711.19;5143148;27;20296;-66
2022/12/15 04:06:51;;;;;;;28.23;14.33;;;;;;;-0.43;69.61;99725.31;5141513;27;20200;-66
2022/12/15 04:09:19;;;;;;;33.70;14.80;;;;;;;-0.49;69.67;99728.31;5137229;27;20207;-66
2022/12/15 04:11:48;;;;;;;34.93;16.40;;;;;;;-0.52;69.80;99728.50;5144655;27;20236;-65
2022/12/15 04:14:15;;;;;;;34.27;14.90;;;;;;;-0.53;69.65;99731.22;5144056;27;20215;-66
2022/12/15 04:16:43;;;;;;;31.93;14.33;;;;;;;-0.49;69.75;99733.53;5130120;27;20216;-65
2022/12/15 04:21:56;;;;;;;37.57;15.37;;;;;;;-0.41;69.18;99736.47;5137604;27;20219;-66
2022/12/15 05:33:30;;;;;;;34.00;15.17;;;;;;;-0.31;69.11;99746.31;5147704;27;20218;-67
2022/12/15 05:35:58;;;;;;;35.17;16.00;;;;;;;-0.21;69.06;99752.63;5158460;27;20207;-66
2022/12/15 05:38:26;;;;;;;34.03;14.93;;;;;;;-0.01;68.70;99760.84;5150316;27;20206;-66
2022/12/15 05:40:57;;;;;;;33.30;14.57;;;;;;;0.10;68.15;99770.56;5143975;27;20224;-67
2022/12/15 05:43:24;;;;;;;36.13;15.73;;;;;;;-0.07;68.32;99765.59;5152441;27;20214;-66
2022/12/15 05:45:53;;;;;;;33.87;14.60;;;;;;;0.00;68.25;99767.72;5157808;27;20207;-66
2022/12/15 05:48:21;;;;;;;30.93;14.83;;;;;;;-0.07;67.79;99768.22;5155713;27;20206;-66
2022/12/15 05:50:50;;;;;;;36.23;15.10;;;;;;;-0.21;67.92;99781.28;5158277;27;20194;-66
2022/12/15 05:53:18;;;;;;;30.40;13.70;;;;;;;-0.14;68.06;99779.97;5156227;27;20213;-66
2022/12/15 05:55:45;;;;;;;32.57;14.30;;;;;;;-0.07;67.60;99776.88;5152872;27;20207;-65
2022/12/15 05:58:13;;;;;;;34.33;14.70;;;;;;;0.01;67.27;99784.19;5158869;27;20218;-65
2022/12/15 06:00:41;;;;;;;32.37;14.83;;;;;;;-0.16;67.24;99803.50;5154990;27;20206;-67
2022/12/15 06:03:08;;;;;;;32.37;13.47;;;;;;;-0.23;67.64;99801.38;5155731;27;20211;-65
2022/12/15 06:05:37;;;;;;;30.70;13.53;;;;;;;-0.36;68.06;99803.09;5154832;27;20211;-66
2022/12/15 06:08:06;;;;;;;28.87;13.80;;;;;;;-0.45;68.62;99802.75;5146717;27;20208;-65
2022/12/15 06:10:34;;;;;;;34.07;14.70;;;;;;;-0.38;68.76;99809.25;5148458;27;20707;-65
2022/12/15 06:13:01;;;;;;;32.70;15.17;;;;;;;-0.18;68.10;99815.81;5151443;27;20239;-66
2022/12/15 06:15:29;;;;;;;31.43;13.87;;;;;;;-0.30;67.89;99810.53;5155917;27;20222;-65
2022/12/15 06:17:57;;;;;;;29.00;14.33;;;;;;;-0.46;68.26;99801.06;5154047;27;20210;-65
2022/12/15 06:20:24;;;;;;;31.17;14.37;;;;;;;-0.31;68.04;99796.66;5156746;27;20237;-65
2022/12/15 06:22:52;;;;;;;31.57;15.07;;;;;;;-0.04;66.75;99807.97;5149095;27;20241;-65
2022/12/15 06:25:21;;;;;;;37.10;14.50;;;;;;;-0.20;66.44;99811.63;5153850;27;20207;-66
2022/12/15 06:27:49;;;;;;;29.67;14.17;;;;;;;-0.46;66.95;99801.06;5154729;27;20245;-65
2022/12/15 06:30:17;;;;;;;30.00;14.93;;;;;;;-0.58;67.48;99807.00;5141947;27;20208;-65
2022/12/15 06:32:45;;;;;;;29.77;14.43;;;;;;;-0.70;67.63;99802.53;5155842;27;20202;-66
2022/12/15 06:35:16;;;;;;;32.20;14.40;;;;;;;-0.64;67.61;99804.78;5148162;27;20234;-66
2022/12/15 06:37:44;;;;;;;36.70;15.13;;;;;;;-0.62;67.66;99800.34;5154584;27;20460;-65
2022/12/15 06:40:11;;;;;;;33.60;14.03;;;;;;;-0.70;67.37;99801.72;5151347;27;20210;-67
2022/12/15 06:42:40;;;;;;;38.47;14.87;;;;;;;-0.81;67.80;99794.56;5141378;27;20223;-65
2022/12/15 06:45:09;;;;;;;29.83;13.80;;;;;;;-0.92;68.25;99791.75;5151868;27;20602;-66
2022/12/15 06:47:37;;;;;;;40.37;14.17;;;;;;;-0.84;67.93;99799.94;5160662;27;20206;-66
2022/12/15 06:50:06;;;;;;;30.27;13.93;;;;;;;-0.92;68.24;99807.38;5147320;27;20208;-66
2022/12/15 06:52:34;;;;;;;30.97;13.70;;;;;;;-0.89;68.34;99812.41;5157736;27;20468;-67
2022/12/15 06:55:02;;;;;;;32.30;13.93;;;;;;;-0.95;68.24;99805.78;5148171;27;20219;-66
2022/12/15 06:57:30;;;;;;;32.73;14.77;;;;;;;-0.99;68.38;99800.88;5154030;27;20270;-66
2022/12/15 06:59:59;;;;;;;32.53;14.83;;;;;;;-1.01;68.47;99813.97;5153919;27;20461;-66
2022/12/15 07:02:28;;;;;;;31.63;14.60;;;;;;;-0.99;68.35;99816.50;5153203;27;20253;-66
2022/12/15 07:04:56;;;;;;;28.90;12.47;;;;;;;-0.96;68.19;99826.69;5150815;27;20481;-66
2022/12/15 07:07:24;;;;;;;28.83;13.30;;;;;;;-0.84;67.73;99824.22;5154405;27;20452;-66
2022/12/15 07:09:52;;;;;;;31.67;14.67;;;;;;;-0.84;67.12;99832.03;5148560;27;20515;-65
2022/12/15 07:12:20;;;;;;;32.50;14.10;;;;;;;-0.85;67.08;99835.56;5153721;27;20468;-65
2022/12/15 07:14:48;;;;;;;31.67;13.53;;;;;;;-0.87;67.14;99836.56;5159219;27;20473;-65
2022/12/15 07:17:22;;;;;;;30.20;13.27;;;;;;;-0.85;66.97;99837.31;5150769;27;20542;-65
2022/12/15 07:19:49;;;;;;;34.57;15.10;;;;;;;-0.79;66.46;99834.34;5153106;27;20451;-65
2022/12/15 07:22:17;;;;;;;32.70;15.17;;;;;;;-0.90;66.36;99836.75;5160839;27;20567;-65
2022/12/15 07:24:45;;;;;;;34.13;13.97;;;;;;;-0.88;66.48;99834.91;5155295;27;20454;-65
2022/12/15 07:27:13;;;;;;;36.00;14.70;;;;;;;-0.83;66.40;99835.47;5150709;27;20217;-65
2022/12/15 07:29:41;;;;;;;35.00;14.73;;;;;;;-0.83;66.48;99833.69;5132757;27;20514;-65
2022/12/15 07:32:08;;;;;;;32.30;14.13;;;;;;;-1.00;66.84;99827.81;5138937;27;20462;-66
2022/12/15 07:34:37;;;;;;;33.67;14.43;;;;;;;-1.14;67.17;99826.84;5136359;27;20454;-66
2022/12/15 07:37:05;;;;;;;32.33;14.73;;;;;;;-1.24;67.32;99828.34;5134147;27;20468;-65
2022/12/15 07:39:33;;;;;;;31.13;14.03;;;;;;;-1.30;67.61;99831.28;5122332;27;20445;-65
2022/12/15 07:42:00;;;;;;;33.07;14.33;;;;;;;-1.34;67.24;99824.59;5137633;27;20511;-65
2022/12/15 07:44:28;;;;;;;30.53;14.67;;;;;;;-1.29;67.05;99829.53;5136716;27;20494;-65
2022/12/15 07:46:56;;;;;;;36.00;14.27;;;;;;;-1.25;66.97;99828.44;5128383;27;20497;-65
2022/12/15 07:49:24;;;;;;;30.80;13.77;;;;;;;-1.22;66.68;99829.06;5137502;28;20484;-65
2022/12/15 07:51:57;;;;;;;32.53;15.07;;;;;;;-1.18;66.51;99838.38;5128186;28;20484;-65
2022/12/15 07:54:24;;;;;;;37.97;12.87;;;;;;;-1.14;66.44;99839.88;5126683;28;20456;-65
2022/12/15 07:56:52;;;;;;;30.47;14.20;;;;;;;-1.01;66.56;99844.34;5137535;27;20463;-65
2022/12/15 07:59:20;;;;;;;31.33;15.23;;;;;;;-0.89;66.41;99843.66;5132976;28;20568;-65
2022/12/15 08:01:48;;;;;;;32.77;14.93;;;;;;;-0.93;66.57;99842.13;5132764;28;20487;-66
2022/12/15 08:04:16;;;;;;;30.80;14.13;;;;;;;-0.91;66.74;99840.28;5133587;28;20980;-66
2022/12/15 08:06:44;;;;;;;29.60;13.23;;;;;;;-0.89;66.18;99847.09;5136262;28;20570;-66
2022/12/15 08:09:13;;;;;;;32.97;13.70;;;;;;;-0.89;65.99;99843.66;5133921;27;20211;-66
2022/12/15 08:11:41;;;;;;;29.20;13.80;;;;;;;-0.92;66.01;99838.63;5127198;27;21014;-66
2022/12/15 08:14:09;;;;;;;27.17;12.10;;;;;;;-0.82;66.13;99851.00;5136352;27;20445;-66
2022/12/15 08:16:44;;;;;;;29.73;13.33;;;;;;;-0.83;65.91;99851.91;5136345;27;20833;-66
2022/12/15 08:19:14;;;;;;;29.00;13.73;;;;;;;-0.80;65.86;99856.13;5136880;27;20452;-66
2022/12/15 08:21:44;;;;;;;27.93;13.63;;;;;;;-0.80;65.43;99849.16;5139961;27;20206;-65
2022/12/15 08:24:14;;;;;;;31.93;14.07;;;;;;;-0.70;65.52;99852.00;5139416;27;20491;-66
2022/12/15 08:26:44;;;;;;;31.10;13.17;;;;;;;-0.57;64.75;99868.59;5132472;27;20580;-65
2022/12/15 08:29:17;;;;;;;28.90;13.97;;;;;;;-0.52;64.06;99861.31;5152264;27;20792;-66
2022/12/15 08:32:05;;;;;;;31.37;13.93;;;;;;;-0.41;63.57;99858.06;5160640;27;20240;-65
2022/12/15 08:34:33;;;;;;;29.83;14.87;;;;;;;-0.43;63.45;99868.56;5158132;27;20460;-66
2022/12/15 08:37:01;;;;;;;29.30;13.57;;;;;;;-0.39;63.56;99879.66;5157132;27;20214;-66
2022/12/15 08:39:30;;;;;;;30.53;13.83;;;;;;;-0.34;63.57;99890.63;5150787;27;20219;-66
2022/12/15 08:41:57;;;;;;;32.87;14.57;;;;;;;-0.31;63.17;99898.25;5156716;27;20208;-66
2022/12/15 08:44:25;;;;;;;33.60;15.60;;;;;;;-0.41;63.68;99897.97;5161624;27;20206;-66
2022/12/15 08:46:54;;;;;;;30.87;13.97;;;;;;;-0.38;63.69;99902.19;5155981;27;20206;-66
2022/12/15 08:49:22;;;;;;;35.20;15.60;;;;;;;-0.42;63.69;99916.31;5153435;27;20248;-66
2022/12/15 08:51:51;;;;;;;29.87;14.20;;;;;;;-0.41;63.85;99905.78;5154633;27;20947;-66
2022/12/15 08:54:20;;;;;;;34.77;14.70;;;;;;;-0.41;63.80;99903.19;5157580;27;20485;-66
2022/12/15 08:56:49;;;;;;;38.53;16.83;;;;;;;-0.39;64.05;99909.16;5159455;27;20268;-66
2022/12/15 08:59:17;;;;;;;32.70;14.77;;;;;;;-0.16;63.86;99915.56;5152132;27;20251;-66
2022/12/15 09:01:46;;;;;;;32.40;15.63;;;;;;;-0.17;63.58;99915.66;5152865;27;20218;-66
2022/12/15 09:04:14;;;;;;;31.90;15.80;;;;;;;-0.08;63.29;99920.28;5154544;27;20224;-66
2022/12/15 09:06:42;;;;;;;36.50;15.50;;;;;;;0.00;63.33;99931.13;5158550;27;20616;-66
2022/12/15 09:09:13;;;;;;;32.03;16.07;;;;;;;0.08;62.90;99931.47;5158895;27;20378;-66
2022/12/15 09:11:41;;;;;;;33.97;16.23;;;;;;;0.11;62.77;99935.66;5160209;27;20226;-66
2022/12/15 09:14:10;;;;;;;37.37;16.33;;;;;;;0.15;62.64;99942.34;5157426;27;20243;-66
2022/12/15 09:16:38;;;;;;;30.30;16.23;;;;;;;0.38;62.26;99949.56;5156921;27;20289;-66
2022/12/15 09:19:07;;;;;;;33.03;16.00;;;;;;;0.58;61.65;99950.94;5156985;27;20211;-66
2022/12/15 09:21:35;;;;;;;37.97;17.20;;;;;;;0.66;61.50;99952.13;5154598;27;20204;-66
2022/12/15 09:24:03;;;;;;;33.47;16.87;;;;;;;0.69;61.32;99954.53;5155244;27;20255;-66
2022/12/15 09:26:33;;;;;;;35.97;16.20;;;;;;;0.74;61.13;99954.22;5153360;27;20204;-66
2022/12/15 09:29:01;;;;;;;42.43;18.23;;;;;;;0.80;61.11;99951.22;5141801;27;20317;-65
2022/12/15 09:31:33;;;;;;;48.53;18.03;;;;;;;0.86;61.30;99934.34;5131360;27;20207;-65
2022/12/15 09:34:01;;;;;;;38.93;18.17;;;;;;;1.03;61.50;99927.09;5134987;27;20212;-65
2022/12/15 09:36:31;;;;;;;36.30;17.00;;;;;;;1.17;61.11;99930.53;5135436;27;20212;-65
2022/12/15 09:39:01;;;;;;;35.37;16.80;;;;;;;1.60;60.32;99926.72;5135034;27;20197;-63
2022/12/15 09:41:32;;;;;;;45.43;19.10;;;;;;;1.80;59.93;99938.44;5140399;27;20201;-65
2022/12/15 09:44:02;;;;;;;41.60;18.20;;;;;;;2.02;59.25;99933.41;5128357;27;20225;-65
2022/12/15 09:46:47;;;;;;;46.03;19.60;;;;;;;1.96;59.32;99939.03;5122312;27;20805;-65
2022/12/15 09:49:29;;;;;;;41.50;18.83;;;;;;;2.04;59.18;99944.56;5138534;27;20664;-65
2022/12/15 09:52:02;;;;;;;50.03;20.80;;;;;;;2.16;58.67;99962.03;5129821;27;20210;-65
2022/12/15 09:54:37;;;;;;;44.90;19.07;;;;;;;2.17;59.30;99961.09;5133570;27;20218;-64
2022/12/15 09:57:13;;;;;;;45.70;20.17;;;;;;;2.25;59.13;99955.31;5131335;27;20209;-67
2022/12/15 09:59:55;;;;;;;43.93;19.40;;;;;;;2.26;59.51;99957.00;5140823;27;20197;-65
2022/12/15 10:02:56;;;;;;;50.43;20.23;;;;;;;2.24;59.76;99957.09;5136924;27;20197;-65
2022/12/15 10:05:36;;;;;;;50.23;20.23;;;;;;;1.97;60.59;99958.19;5134551;27;20197;-65
2022/12/15 10:08:28;;;;;;;44.33;20.77;;;;;;;1.96;61.21;99954.72;5132565;27;20251;-65
2022/12/15 10:10:59;;;;;;;44.83;20.20;;;;;;;1.83;61.42;99953.91;5134250;27;20217;-65
2022/12/15 10:13:40;;;;;;;48.37;20.00;;;;;;;1.70;61.98;99953.06;5139089;27;20235;-65
2022/12/15 10:16:18;;;;;;;48.77;20.63;;;;;;;1.84;61.90;99935.53;5144460;27;20201;-64
2022/12/15 10:18:57;;;;;;;44.53;21.20;;;;;;;2.15;60.93;99928.13;5135030;27;20299;-65
2022/12/15 10:21:45;;;;;;;46.97;19.87;;;;;;;2.23;60.65;99928.44;5137199;27;20213;-65
2022/12/15 10:24:19;;;;;;;46.00;19.97;;;;;;;2.42;60.12;99933.19;5140279;27;21001;-65
2022/12/15 10:27:30;;;;;;;46.23;20.63;;;;;;;2.56;59.62;99926.00;5136572;27;20251;-65
2022/12/15 10:30:02;;;;;;;43.13;20.40;;;;;;;2.61;59.44;99918.69;5138242;27;20255;-65
2022/12/15 10:32:43;;;;;;;39.53;19.20;;;;;;;2.70;59.15;99918.97;5139178;27;20204;-65
2022/12/15 10:35:34;;;;;;;48.07;21.67;;;;;;;2.92;58.94;99908.56;5135934;27;20847;-65
2022/12/15 10:38:04;;;;;;;48.37;21.30;;;;;;;3.08;58.56;99909.09;5139971;27;20694;-65
2022/12/15 10:40:47;;;;;;;40.90;19.40;;;;;;;3.17;58.26;99911.03;5139430;27;22181;-65
2022/12/15 10:43:27;;;;;;;47.43;22.07;;;;;;;3.35;57.76;99911.44;5132334;27;20240;-67
2022/12/15 10:46:12;;;;;;;42.90;20.20;;;;;;;3.78;56.62;99906.41;5137788;27;20261;-65
2022/12/15 10:48:40;;;;;;;50.43;22.00;;;;;;;3.79;55.95;99898.41;5137093;27;20204;-65
2022/12/15 10:51:19;;;;;;;45.47;20.33;;;;;;;3.64;55.78;99912.69;5135015;27;20208;-65
2022/12/15 10:53:48;;;;;;;43.50;21.23;;;;;;;3.42;56.51;99912.69;5136558;27;20646;-65
2022/12/15 10:56:22;;;;;;;40.47;21.13;;;;;;;3.33;56.54;99911.59;5136389;27;20278;-65
2022/12/15 10:59:02;;;;;;;43.47;19.53;;;;;;;3.03;57.30;99896.38;5140081;27;20544;-66
2022/12/15 11:01:32;;;;;;;40.13;20.53;;;;;;;2.83;57.79;99893.53;5140286;27;20224;-65
2022/12/15 11:04:01;;;;;;;44.20;19.73;;;;;;;2.83;57.98;99896.16;5138911;27;20272;-64
2022/12/15 11:06:33;;;;;;;41.53;20.93;;;;;;;3.03;58.03;99898.16;5134191;27;20204;-64
2022/12/15 11:09:20;;;;;;;43.23;19.63;;;;;;;3.11;58.15;99876.63;5138320;27;20660;-65
2022/12/15 11:14:45;;;;;;;39.73;20.10;;;;;;;3.10;57.84;99886.25;5136683;27;20224;-64
2022/12/15 11:17:16;;;;;;;44.53;21.30;;;;;;;3.11;57.96;99887.94;5141893;27;20202;-64
2022/12/15 11:19:49;;;;;;;44.47;22.20;;;;;;;3.01;57.96;99885.16;5137886;27;20568;-65
2022/12/15 11:22:35;;;;;;;41.27;22.63;;;;;;;2.98;58.47;99881.94;5138177;27;20203;-64
2022/12/15 11:25:09;;;;;;;40.23;20.70;;;;;;;2.94;58.31;99885.72;5134347;27;20321;-64
2022/12/15 11:27:42;;;;;;;37.17;18.93;;;;;;;2.81;58.78;99874.50;5138634;27;20212;-65
2022/12/15 11:30:14;;;;;;;40.30;20.17;;;;;;;2.76;58.96;99874.00;5135454;27;20330;-64
2022/12/15 11:32:44;;;;;;;43.20;20.57;;;;;;;2.54;59.30;99866.91;5130116;27;20342;-65
2022/12/15 11:35:19;;;;;;;41.43;21.17;;;;;;;2.37;59.80;99868.13;5134057;27;20201;-64
2022/12/15 11:37:51;;;;;;;38.50;20.37;;;;;;;2.28;60.36;99867.94;5136369;27;20286;-64
2022/12/15 11:40:30;;;;;;;39.73;21.03;;;;;;;2.08;60.86;99859.75;5140937;27;20900;-65
2022/12/15 11:43:17;;;;;;;40.83;21.90;;;;;;;1.87;61.59;99854.25;5136572;27;20289;-64
2022/12/15 11:45:54;;;;;;;43.37;22.33;;;;;;;1.81;62.30;99844.22;5143012;27;20227;-64
2022/12/15 11:48:26;;;;;;;44.27;21.40;;;;;;;1.75;62.63;99842.03;5134311;27;20202;-64
2022/12/15 11:50:59;;;;;;;45.73;21.47;;;;;;;1.68;63.12;99840.78;5132512;27;20216;-64
2022/12/15 11:53:56;;;;;;;49.03;21.60;;;;;;;1.58;63.54;99833.72;5138759;27;20342;-64
2022/12/15 11:56:31;;;;;;;43.60;21.13;;;;;;;1.46;64.27;99835.38;5131242;27;20209;-65
2022/12/15 11:59:19;;;;;;;47.07;20.70;;;;;;;1.42;64.56;99839.13;5134069;27;20217;-64
2022/12/15 12:02:03;;;;;;;48.93;20.67;;;;;;;1.28;64.88;99836.66;5127831;28;20216;-64
2022/12/15 12:04:42;;;;;;;46.93;21.40;;;;;;;1.23;65.75;99834.31;5137015;27;20282;-65
2022/12/15 12:07:22;;;;;;;43.10;19.93;;;;;;;1.17;65.73;99839.13;5138001;27;20220;-66
2022/12/15 12:10:04;;;;;;;46.03;21.00;;;;;;;1.16;66.21;99845.28;5133898;27;20581;-65
2022/12/15 12:12:40;;;;;;;47.43;21.50;;;;;;;1.10;66.55;99823.06;5136415;27;20725;-65
2022/12/15 12:15:26;;;;;;;46.47;20.90;;;;;;;1.21;66.39;99810.13;5134169;27;20193;-65
2022/12/15 12:18:01;;;;;;;43.60;20.10;;;;;;;1.42;66.05;99808.63;5135715;27;20201;-65
2022/12/15 12:20:40;;;;;;;46.83;20.30;;;;;;;1.64;65.41;99792.28;5136231;28;20212;-65
2022/12/15 12:23:16;;;;;;;50.97;21.50;;;;;;;1.75;65.25;99784.53;5134513;27;20682;-66
2022/12/15 12:25:55;;;;;;;44.40;20.70;;;;;;;1.80;64.97;99774.56;5139921;27;20232;-65
2022/12/15 12:28:39;;;;;;;44.53;20.90;;;;;;;1.76;64.50;99765.28;5130460;27;20568;-66
2022/12/15 12:31:20;;;;;;;43.93;20.37;;;;;;;1.70;64.60;99772.72;5152404;27;20309;-64
2022/12/15 12:33:51;;;;;;;40.60;20.17;;;;;;;1.91;64.10;99770.38;5154939;27;20193;-65
2022/12/15 12:36:19;;;;;;;46.10;20.53;;;;;;;1.89;64.07;99776.53;5154225;27;20204;-65
2022/12/15 12:38:49;;;;;;;44.77;20.67;;;;;;;1.83;64.61;99774.38;5154198;27;20215;-65
2022/12/15 12:41:30;;;;;;;45.20;20.80;;;;;;;1.82;64.78;99780.53;5150365;27;20240;-65
2022/12/15 12:44:01;;;;;;;40.23;19.73;;;;;;;1.81;64.74;99764.97;5158407;27;20204;-66
2022/12/15 12:46:33;;;;;;;45.50;20.67;;;;;;;1.83;64.63;99765.69;5151645;27;20215;-65
2022/12/15 12:49:05;;;;;;;45.17;20.83;;;;;;;1.78;64.86;99766.00;5155064;27;20230;-65
2022/12/15 12:51:35;;;;;;;43.43;20.37;;;;;;;1.74;64.77;99767.19;5155348;27;20204;-65
2022/12/15 12:54:10;;;;;;;48.90;20.80;;;;;;;1.68;65.16;99761.53;5145785;27;20205;-65
2022/12/15 12:56:42;;;;;;;43.57;21.03;;;;;;;1.58;65.62;99750.09;5150060;27;20277;-66
2022/12/15 12:59:37;;;;;;;45.37;20.80;;;;;;;1.40;66.19;99747.00;5153445;27;20205;-65
2022/12/15 13:02:40;;;;;;;44.30;19.37;;;;;;;1.31;66.35;99747.63;5156774;27;20200;-65
2022/12/15 13:05:24;;;;;;;45.77;20.53;;;;;;;1.24;66.85;99741.16;5150874;27;20221;-65
2022/12/15 13:07:55;;;;;;;44.10;19.97;;;;;;;1.24;67.18;99728.09;5152667;27;20215;-65
2022/12/15 13:10:24;;;;;;;44.33;20.00;;;;;;;1.24;66.94;99720.25;5148349;27;20201;-64
2022/12/15 13:12:54;;;;;;;39.87;19.40;;;;;;;1.25;67.14;99711.47;5150792;27;20225;-66
2022/12/15 13:15:37;;;;;;;39.43;18.60;;;;;;;1.19;67.13;99711.91;5151950;27;20200;-65
2022/12/15 13:18:15;;;;;;;41.60;20.13;;;;;;;1.12;67.25;99711.53;5155345;27;20205;-65
2022/12/15 13:20:44;;;;;;;44.03;19.97;;;;;;;1.12;67.46;99717.56;5143037;27;20213;-65
2022/12/15 13:23:36;;;;;;;42.63;19.17;;;;;;;1.11;67.43;99707.22;5152778;27;20220;-65
2022/12/15 13:26:14;;;;;;;40.97;19.33;;;;;;;1.11;67.62;99708.06;5159491;27;20212;-66
2022/12/15 13:28:50;;;;;;;40.23;18.73;;;;;;;1.19;67.48;99707.53;5141740;27;20240;-66
2022/12/15 13:31:33;;;;;;;41.70;19.03;;;;;;;1.27;67.33;99712.22;5164952;27;20232;-66
2022/12/15 13:34:12;;;;;;;43.70;19.53;;;;;;;1.33;67.23;99719.59;5158965;27;20285;-66
2022/12/15 13:36:59;;;;;;;43.83;21.30;;;;;;;1.30;67.39;99715.47;5163230;27;20213;-66
2022/12/15 13:39:58;;;;;;;44.33;20.50;;;;;;;1.33;67.26;99698.72;5158583;27;20238;-68
2022/12/15 13:42:36;;;;;;;44.60;20.67;;;;;;;1.28;67.72;99695.59;5160613;27;20205;-65
2022/12/15 13:45:46;;;;;;;42.93;20.23;;;;;;;1.31;67.64;99687.56;5159836;27;20212;-65
2022/12/15 13:48:39;;;;;;;42.87;20.67;;;;;;;1.33;67.29;99688.25;5151058;27;20237;-65
2022/12/15 13:51:24;;;;;;;48.90;21.30;;;;;;;1.39;67.42;99690.47;5159433;27;20213;-65
2022/12/15 13:53:57;;;;;;;41.67;20.27;;;;;;;1.46;67.35;99689.06;5155796;27;20232;-65
2022/12/15 13:56:41;;;;;;;44.17;20.93;;;;;;;1.61;66.86;99698.44;5154915;27;20275;-65
2022/12/15 13:59:19;;;;;;;44.43;20.47;;;;;;;1.64;66.20;99706.06;5159341;27;20209;-64
2022/12/15 14:01:52;;;;;;;47.40;20.53;;;;;;;1.65;65.92;99705.13;5151856;27;20601;-65
2022/12/15 14:04:21;;;;;;;44.13;19.90;;;;;;;1.73;65.60;99701.94;5155042;27;20205;-66
2022/12/15 14:06:52;;;;;;;45.57;21.17;;;;;;;1.73;65.28;99697.56;5148141;27;20252;-65
2022/12/15 14:09:25;;;;;;;44.30;19.47;;;;;;;1.70;65.56;99696.94;5161666;27;20211;-65
2022/12/15 14:11:53;;;;;;;45.27;20.63;;;;;;;1.68;65.85;99701.44;5159932;27;20222;-66
2022/12/15 14:14:26;;;;;;;42.37;20.17;;;;;;;1.66;65.86;99693.72;5158929;27;20209;-65